Time;durP1;ratioP1;P1;durP2;ratioP2;P2;SDS_P1;SDS_P2;PMS_P1;PMS_P2;Temp;Humidity;BMP_temperature;BMP_pressure;BME280_temperature;BME280_humidity;BME280_pressure;Samples;Min_cycle;Max_cycle;Signal;HPM_P1;HPM_P2
2024/02/07 00:01:06;;;;;;;0.40;0.40;;;9.20;97.50;;;;;;10463514;28;20219;-82
2024/02/07 00:06:10;;;;;;;0.40;0.40;;;9.20;97.40;;;;;;10462846;28;20259;-82
2024/02/07 00:11:14;;;;;;;0.40;0.40;;;9.10;97.40;;;;;;10462910;28;20216;-81
2024/02/07 00:16:17;;;;;;;0.40;0.40;;;9.10;97.50;;;;;;10464260;28;20206;-82
2024/02/07 00:21:19;;;;;;;0.40;0.40;;;9.10;97.50;;;;;;10463345;28;20205;-82
2024/02/07 00:26:23;;;;;;;0.40;0.40;;;9.10;97.50;;;;;;10463579;28;20197;-81
2024/02/07 00:31:26;;;;;;;0.30;0.30;;;9.10;97.50;;;;;;10477140;28;20693;-80
2024/02/07 00:36:28;;;;;;;0.37;0.37;;;9.00;97.50;;;;;;10463122;28;20213;-80
2024/02/07 00:41:32;;;;;;;0.40;0.40;;;9.00;97.60;;;;;;10460523;28;20584;-81
2024/02/07 00:46:34;;;;;;;0.40;0.40;;;9.00;97.50;;;;;;10460940;28;20197;-81
2024/02/07 00:51:36;;;;;;;0.30;0.30;;;9.00;97.50;;;;;;10459795;28;20225;-80
2024/02/07 00:56:40;;;;;;;0.30;0.30;;;8.90;97.60;;;;;;10460315;28;20674;-82
2024/02/07 01:01:42;;;;;;;0.40;0.40;;;9.00;97.70;;;;;;10460374;28;20689;-81
2024/02/07 01:06:45;;;;;;;0.30;0.30;;;9.00;97.60;;;;;;10460517;28;20196;-82
2024/02/07 01:11:49;;;;;;;0.30;0.30;;;9.00;97.60;;;;;;10444922;28;20213;-81
2024/02/07 01:16:51;;;;;;;0.30;0.30;;;9.00;97.90;;;;;;10459340;28;20217;-81
2024/02/07 01:21:53;;;;;;;0.33;0.33;;;9.00;97.70;;;;;;10461569;28;20216;-80
2024/02/07 01:26:57;;;;;;;0.30;0.30;;;9.00;97.60;;;;;;10460196;28;20564;-83
2024/02/07 01:31:59;;;;;;;0.40;0.40;;;9.00;97.70;;;;;;10458017;28;20703;-82
2024/02/07 01:37:02;;;;;;;0.40;0.40;;;9.00;97.80;;;;;;10467458;28;20557;-80
2024/02/07 01:42:06;;;;;;;0.40;0.40;;;9.10;97.90;;;;;;10458732;28;20686;-79
2024/02/07 01:47:12;;;;;;;0.30;0.30;;;9.10;97.90;;;;;;10456792;28;20193;-80
2024/02/07 01:52:17;;;;;;;0.30;0.30;;;9.00;97.90;;;;;;10456935;28;20213;-79
2024/02/07 01:57:21;;;;;;;0.30;0.30;;;9.00;98.00;;;;;;10456633;28;20209;-81
2024/02/07 02:02:25;;;;;;;0.30;0.30;;;9.00;98.10;;;;;;10454089;28;20290;-80
2024/02/07 02:07:28;;;;;;;0.40;0.40;;;9.00;98.10;;;;;;10456190;28;20234;-82
2024/02/07 02:12:33;;;;;;;0.30;0.30;;;9.00;98.20;;;;;;10458246;28;20220;-80
2024/02/07 02:17:35;;;;;;;0.30;0.30;;;8.90;98.20;;;;;;10456746;28;20221;-81
2024/02/07 02:23:08;;;;;;;0.40;0.40;;;9.00;98.30;;;;;;10454670;28;20604;-82
2024/02/07 02:28:27;;;;;;;0.40;0.40;;;9.00;98.40;;;;;;10456853;28;20193;-80
2024/02/07 02:33:33;;;;;;;0.40;0.40;;;9.00;98.50;;;;;;10456465;28;20213;-80
2024/02/07 02:38:37;;;;;;;0.30;0.30;;;9.00;98.70;;;;;;10454710;28;20708;-78
2024/02/07 02:43:40;;;;;;;0.30;0.30;;;9.10;98.70;;;;;;10456356;28;20640;-82
2024/02/07 02:48:43;;;;;;;0.37;0.37;;;9.10;98.70;;;;;;10455160;28;20189;-80
2024/02/07 02:53:46;;;;;;;0.30;0.30;;;9.10;98.60;;;;;;10455463;28;20252;-79
2024/02/07 02:58:48;;;;;;;0.30;0.30;;;9.20;98.90;;;;;;10457006;28;20213;-81
2024/02/07 03:03:54;;;;;;;0.40;0.40;;;9.20;98.80;;;;;;10463608;28;20251;-82
2024/02/07 03:09:06;;;;;;;0.30;0.30;;;9.20;98.90;;;;;;10462284;28;20189;-81
2024/02/07 03:14:08;;;;;;;0.40;0.40;;;9.30;99.00;;;;;;10463169;28;20623;-82
2024/02/07 03:19:12;;;;;;;0.40;0.40;;;9.30;99.10;;;;;;10461174;28;20228;-82
2024/02/07 03:24:15;;;;;;;0.50;0.50;;;9.40;99.00;;;;;;10461232;28;20224;-79
2024/02/07 03:29:17;;;;;;;0.30;0.30;;;9.40;99.00;;;;;;10461085;28;20197;-80
2024/02/07 03:34:21;;;;;;;0.40;0.40;;;9.50;98.90;;;;;;10463885;28;20209;-82
2024/02/07 03:39:23;;;;;;;0.40;0.40;;;9.50;98.90;;;;;;10462537;28;20275;-80
2024/02/07 03:44:26;;;;;;;0.50;0.50;;;9.60;98.90;;;;;;10462441;28;20339;-80
2024/02/07 03:49:30;;;;;;;0.47;0.47;;;9.60;98.90;;;;;;10462189;28;20230;-79
2024/02/07 03:54:32;;;;;;;0.40;0.40;;;9.60;98.90;;;;;;10462577;28;21052;-81
2024/02/07 03:59:35;;;;;;;0.50;0.50;;;9.70;98.80;;;;;;10481705;28;20213;-80
2024/02/07 04:04:38;;;;;;;0.70;0.70;;;9.70;98.70;;;;;;10475766;28;20236;-81
2024/02/07 04:09:41;;;;;;;0.70;0.70;;;9.70;98.90;;;;;;10481140;28;20208;-83
2024/02/07 05:18:28;;;;;;;0.70;0.70;;;9.90;99.20;;;;;;10457063;28;20224;-78
2024/02/07 05:23:32;;;;;;;0.70;0.70;;;9.90;99.20;;;;;;10458195;28;20221;-80
2024/02/07 05:28:36;;;;;;;0.60;0.60;;;10.00;98.60;;;;;;10459008;28;20193;-79
2024/02/07 05:33:40;;;;;;;0.67;0.67;;;10.00;98.50;;;;;;10457203;28;20217;-79
2024/02/07 05:38:44;;;;;;;0.60;0.60;;;10.00;98.60;;;;;;10457522;28;20216;-80
2024/02/07 05:43:46;;;;;;;0.50;0.50;;;10.00;98.40;;;;;;10455602;28;20287;-82
2024/02/07 05:48:49;;;;;;;0.60;0.60;;;10.00;98.40;;;;;;10451576;28;20189;-80
2024/02/07 05:53:54;;;;;;;0.50;0.50;;;10.00;98.40;;;;;;10455032;28;20209;-81
2024/02/07 05:58:56;;;;;;;0.30;0.30;;;10.00;98.50;;;;;;10455555;28;20298;-83
2024/02/07 06:03:58;;;;;;;0.47;0.47;;;10.00;98.60;;;;;;10452575;28;20282;-81
2024/02/07 06:09:04;;;;;;;0.30;0.30;;;10.00;98.50;;;;;;10466079;28;20204;-81
2024/02/07 06:14:06;;;;;;;0.60;0.60;;;10.00;98.50;;;;;;10483866;28;20290;-84
2024/02/07 06:19:09;;;;;;;0.57;0.57;;;10.00;98.50;;;;;;10455262;28;20217;-84
2024/02/07 06:24:12;;;;;;;0.50;0.50;;;10.00;98.50;;;;;;10454525;28;20253;-82
2024/02/07 06:29:15;;;;;;;0.50;0.50;;;10.10;98.50;;;;;;10451952;28;20194;-83
2024/02/07 06:34:17;;;;;;;0.50;0.50;;;10.10;98.60;;;;;;10454264;28;20712;-82
2024/02/07 06:39:23;;;;;;;0.50;0.50;;;10.10;98.50;;;;;;10454963;28;20339;-81
2024/02/07 06:44:25;;;;;;;0.50;0.50;;;10.10;98.60;;;;;;10454909;28;20720;-83
2024/02/07 06:49:27;;;;;;;0.50;0.50;;;10.10;98.50;;;;;;10453714;28;20185;-84
2024/02/07 06:54:31;;;;;;;0.40;0.40;;;10.10;98.40;;;;;;10422271;28;20698;-82
2024/02/07 06:59:33;;;;;;;0.50;0.50;;;10.10;98.30;;;;;;10453586;28;20217;-81
2024/02/07 07:04:36;;;;;;;0.40;0.40;;;10.20;98.40;;;;;;10454392;28;20278;-80
2024/02/07 07:09:39;;;;;;;0.50;0.50;;;10.20;98.20;;;;;;10454646;28;20201;-81
2024/02/07 07:14:42;;;;;;;0.20;0.20;;;10.20;98.20;;;;;;10457992;28;20636;-82
2024/02/07 07:19:45;;;;;;;0.50;0.50;;;10.30;98.10;;;;;;10455613;28;20255;-82
2024/02/07 07:24:49;;;;;;;0.47;0.47;;;10.40;98.10;;;;;;10455598;28;20267;-82
2024/02/07 07:29:51;;;;;;;0.40;0.40;;;10.40;97.90;;;;;;10455710;28;20227;-82
2024/02/07 07:34:53;;;;;;;0.57;0.57;;;10.30;98.10;;;;;;10458976;28;20282;-80
2024/02/07 07:39:57;;;;;;;0.50;0.50;;;10.40;98.00;;;;;;10454265;28;20290;-80
2024/02/07 07:45:00;;;;;;;0.50;0.50;;;10.50;97.90;;;;;;10454572;28;20274;-80
2024/02/07 07:50:04;;;;;;;0.40;0.40;;;10.50;97.80;;;;;;10459589;28;20220;-79
2024/02/07 07:55:08;;;;;;;0.43;0.43;;;10.50;97.70;;;;;;10462026;28;20209;-81
2024/02/07 08:00:11;;;;;;;0.50;0.50;;;10.60;97.60;;;;;;10459711;28;20255;-80
2024/02/07 08:05:16;;;;;;;0.30;0.30;;;10.60;97.80;;;;;;10461046;28;20233;-81
2024/02/07 08:10:20;;;;;;;0.50;0.50;;;10.60;97.70;;;;;;10464896;28;20197;-80
2024/02/07 08:15:22;;;;;;;0.40;0.40;;;10.70;97.70;;;;;;10459384;28;20274;-80
2024/02/07 08:20:25;;;;;;;0.40;0.40;;;10.70;97.70;;;;;;10459093;28;20217;-80
2024/02/07 08:25:28;;;;;;;0.50;0.50;;;10.70;97.70;;;;;;10460053;28;20217;-80
2024/02/07 08:30:30;;;;;;;0.30;0.30;;;10.80;97.60;;;;;;10459449;28;20192;-80
2024/02/07 08:35:33;;;;;;;0.40;0.40;;;10.80;97.80;;;;;;10460474;28;20304;-81
2024/02/07 08:40:37;;;;;;;0.40;0.40;;;10.80;97.80;;;;;;10458284;28;20232;-80
2024/02/07 08:45:39;;;;;;;0.40;0.40;;;10.90;97.70;;;;;;10458365;28;20212;-80
2024/02/07 08:50:42;;;;;;;0.30;0.30;;;10.90;97.80;;;;;;10458344;28;20194;-81
2024/02/07 08:55:45;;;;;;;0.50;0.50;;;10.90;97.80;;;;;;10457985;28;20204;-80
2024/02/07 09:00:48;;;;;;;0.30;0.30;;;11.00;97.80;;;;;;10460081;28;20210;-81
2024/02/07 09:05:50;;;;;;;0.37;0.37;;;11.00;97.70;;;;;;10459706;28;20243;-80
2024/02/07 09:10:55;;;;;;;0.20;0.20;;;11.10;97.80;;;;;;10459910;28;20207;-81
2024/02/07 09:15:58;;;;;;;0.50;0.50;;;11.10;97.90;;;;;;10458636;28;20660;-82
2024/02/07 09:21:00;;;;;;;0.30;0.30;;;11.10;97.90;;;;;;10457521;28;20227;-82
2024/02/07 09:26:05;;;;;;;0.50;0.50;;;11.20;97.90;;;;;;10467681;28;20208;-79
2024/02/07 09:31:08;;;;;;;0.33;0.33;;;11.20;98.00;;;;;;10458263;28;20271;-80
2024/02/07 09:36:11;;;;;;;0.30;0.30;;;11.20;98.10;;;;;;10456169;28;20214;-80
2024/02/07 09:41:16;;;;;;;0.30;0.30;;;11.30;98.10;;;;;;10456285;28;20225;-80
2024/02/07 09:46:20;;;;;;;0.30;0.30;;;11.30;98.20;;;;;;10455885;28;20459;-82
2024/02/07 09:51:24;;;;;;;0.30;0.30;;;11.30;98.10;;;;;;10454789;28;20271;-80
2024/02/07 09:56:30;;;;;;;0.30;0.30;;;11.40;98.10;;;;;;10455305;28;20627;-83
2024/02/07 10:01:34;;;;;;;0.40;0.40;;;11.50;98.10;;;;;;10455003;28;20225;-80
2024/02/07 10:06:37;;;;;;;0.40;0.40;;;11.50;98.10;;;;;;10455042;28;20204;-82
2024/02/07 10:11:41;;;;;;;0.40;0.40;;;11.50;98.00;;;;;;10455427;28;20220;-80
2024/02/07 10:16:44;;;;;;;0.30;0.30;;;11.60;97.90;;;;;;10455787;28;20208;-81
2024/02/07 10:21:47;;;;;;;0.30;0.30;;;11.70;97.90;;;;;;10456328;28;20282;-79
2024/02/07 10:26:50;;;;;;;0.40;0.40;;;11.80;97.70;;;;;;10456537;28;20250;-79
2024/02/07 10:31:53;;;;;;;0.30;0.30;;;11.90;97.70;;;;;;10460274;28;20724;-80
2024/02/07 10:36:59;;;;;;;0.40;0.40;;;11.90;97.80;;;;;;10454764;28;20219;-78
2024/02/07 10:42:09;;;;;;;0.30;0.30;;;12.00;97.50;;;;;;10452194;28;20217;-80
2024/02/07 10:47:12;;;;;;;0.40;0.40;;;12.00;97.60;;;;;;10453387;28;20220;-80
2024/02/07 10:52:14;;;;;;;0.40;0.40;;;12.10;97.40;;;;;;10453338;28;20630;-80
2024/02/07 10:57:22;;;;;;;0.40;0.40;;;12.00;97.50;;;;;;10452177;28;20201;-81
2024/02/07 11:02:25;;;;;;;0.40;0.40;;;12.00;97.60;;;;;;10451429;28;20217;-80
2024/02/07 11:07:27;;;;;;;0.30;0.30;;;12.00;97.70;;;;;;10453488;28;20255;-79
2024/02/07 11:12:32;;;;;;;0.40;0.40;;;12.00;97.60;;;;;;10453429;28;20209;-80
2024/02/07 11:17:34;;;;;;;0.30;0.30;;;12.00;97.80;;;;;;10452516;28;20267;-79
2024/02/07 11:22:41;;;;;;;0.40;0.40;;;12.00;97.80;;;;;;10460301;28;20228;-79
2024/02/07 11:27:45;;;;;;;0.30;0.30;;;12.00;97.80;;;;;;10460797;28;20243;-81
2024/02/07 11:32:48;;;;;;;0.30;0.30;;;12.00;97.80;;;;;;10460247;28;20221;-82
2024/02/07 11:37:51;;;;;;;0.50;0.50;;;12.10;97.80;;;;;;10460863;28;20615;-80
2024/02/07 11:43:02;;;;;;;0.40;0.40;;;12.10;97.90;;;;;;10461182;28;20225;-80
2024/02/07 11:48:16;;;;;;;0.30;0.30;;;12.10;97.90;;;;;;10457350;28;20193;-79
2024/02/07 11:53:20;;;;;;;0.40;0.40;;;12.20;97.90;;;;;;10459378;28;20217;-80
2024/02/07 11:58:25;;;;;;;0.30;0.30;;;12.40;97.90;;;;;;10459066;28;20205;-81
2024/02/07 12:03:27;;;;;;;0.40;0.40;;;12.50;97.50;;;;;;10459752;28;20592;-81
2024/02/07 12:08:30;;;;;;;0.30;0.30;;;12.70;97.20;;;;;;10460127;28;20231;-78
2024/02/07 12:13:35;;;;;;;0.50;0.50;;;12.70;97.20;;;;;;10451584;28;20270;-81
2024/02/07 12:18:37;;;;;;;0.40;0.40;;;12.70;97.20;;;;;;10452786;28;20217;-81
2024/02/07 12:23:40;;;;;;;0.10;0.10;;;12.70;97.20;;;;;;10451001;28;20266;-82
2024/02/07 12:28:44;;;;;;;0.30;0.30;;;12.80;96.90;;;;;;10449115;28;20258;-83
2024/02/07 12:33:47;;;;;;;0.30;0.30;;;12.90;97.00;;;;;;10452448;28;20278;-82
2024/02/07 12:38:50;;;;;;;0.40;0.40;;;13.10;96.60;;;;;;10457697;28;20213;-81
2024/02/07 12:43:56;;;;;;;0.40;0.40;;;13.10;96.40;;;;;;10468109;28;20224;-80
2024/02/07 12:49:00;;;;;;;0.30;0.30;;;13.10;96.40;;;;;;10466854;28;20700;-80
2024/02/07 12:54:03;;;;;;;0.30;0.30;;;13.10;96.40;;;;;;10463219;28;20217;-80
2024/02/07 12:59:07;;;;;;;0.40;0.40;;;13.00;96.50;;;;;;10470554;28;20217;-83
2024/02/07 13:04:10;;;;;;;0.23;0.23;;;13.00;96.50;;;;;;10468918;28;20759;-81
2024/02/07 13:09:12;;;;;;;0.30;0.30;;;13.00;96.50;;;;;;10457045;28;20758;-82
2024/02/07 13:14:16;;;;;;;0.30;0.30;;;12.90;96.50;;;;;;10456300;28;20232;-80
2024/02/07 13:19:19;;;;;;;0.30;0.30;;;12.90;96.80;;;;;;10468769;28;20216;-82
2024/02/07 13:24:22;;;;;;;0.50;0.50;;;12.80;96.80;;;;;;10461121;28;20236;-83
2024/02/07 13:29:25;;;;;;;0.37;0.37;;;12.80;96.90;;;;;;10456594;28;20656;-81
2024/02/07 13:34:28;;;;;;;0.40;0.40;;;12.80;96.90;;;;;;10463048;28;20214;-81
2024/02/07 13:39:30;;;;;;;0.40;0.40;;;12.90;96.60;;;;;;10457387;28;20291;-82
2024/02/07 13:44:34;;;;;;;0.30;0.30;;;12.90;96.40;;;;;;10452788;28;20686;-81
2024/02/07 13:49:36;;;;;;;0.40;0.40;;;12.80;96.60;;;;;;10452393;28;20667;-83
2024/02/07 13:54:39;;;;;;;0.30;0.30;;;12.80;96.60;;;;;;10453775;28;20283;-84
2024/02/07 13:59:42;;;;;;;0.20;0.20;;;12.70;96.70;;;;;;10453243;28;20513;-81
2024/02/07 14:04:45;;;;;;;0.40;0.40;;;12.70;96.40;;;;;;10453634;28;20232;-80
2024/02/07 14:09:48;;;;;;;0.20;0.20;;;12.70;96.40;;;;;;10453016;28;20198;-80
2024/02/07 14:14:52;;;;;;;0.30;0.30;;;12.60;96.80;;;;;;10454005;28;20217;-83
2024/02/07 14:19:54;;;;;;;0.30;0.30;;;12.50;97.00;;;;;;10453570;28;20217;-82
2024/02/07 14:24:56;;;;;;;0.30;0.30;;;12.50;96.70;;;;;;10452285;28;20290;-80
2024/02/07 14:30:00;;;;;;;0.30;0.30;;;12.50;96.50;;;;;;10454981;28;20197;-82
2024/02/07 14:35:03;;;;;;;0.40;0.40;;;12.40;96.80;;;;;;10453161;28;20748;-82
2024/02/07 14:40:07;;;;;;;0.40;0.40;;;12.40;96.60;;;;;;10455294;28;20220;-82
2024/02/07 14:45:12;;;;;;;0.40;0.40;;;12.30;96.80;;;;;;10452418;28;20225;-84
2024/02/07 14:50:15;;;;;;;0.40;0.40;;;12.40;96.50;;;;;;10452335;28;20200;-83
2024/02/07 14:55:17;;;;;;;0.40;0.40;;;12.40;96.50;;;;;;10450332;28;20220;-80
2024/02/07 15:00:21;;;;;;;0.40;0.40;;;12.30;96.50;;;;;;10454374;28;20236;-80
2024/02/07 15:05:24;;;;;;;0.57;0.57;;;12.30;96.40;;;;;;10451697;28;20605;-84
2024/02/07 15:10:26;;;;;;;0.60;0.60;;;12.20;96.60;;;;;;10455426;28;20197;-82
2024/02/07 15:15:30;;;;;;;0.40;0.40;;;12.20;96.60;;;;;;10454508;28;20229;-82
2024/02/07 15:20:32;;;;;;;0.47;0.47;;;12.20;96.50;;;;;;10454720;28;20224;-84
2024/02/07 15:25:35;;;;;;;0.40;0.40;;;12.20;96.60;;;;;;10453247;28;20217;-84
2024/02/07 15:30:38;;;;;;;0.40;0.40;;;12.10;96.80;;;;;;10451229;28;20204;-82
2024/02/07 15:35:41;;;;;;;0.30;0.30;;;12.10;96.70;;;;;;10452220;28;20209;-83
2024/02/07 15:40:43;;;;;;;0.40;0.40;;;12.10;96.90;;;;;;10453244;28;20643;-81
2024/02/07 15:45:47;;;;;;;0.60;0.60;;;12.10;97.10;;;;;;10452367;28;20193;-83
2024/02/07 15:50:49;;;;;;;0.40;0.40;;;12.00;97.60;;;;;;10450667;28;20198;-83
2024/02/07 15:55:52;;;;;;;0.40;0.40;;;11.90;97.40;;;;;;10452019;28;20613;-82
2024/02/07 16:00:58;;;;;;;0.50;0.50;;;11.90;97.50;;;;;;10452645;28;20217;-83
2024/02/07 16:06:01;;;;;;;0.40;0.40;;;11.90;97.70;;;;;;10461499;28;20756;-81
2024/02/07 16:11:04;;;;;;;0.50;0.50;;;11.80;98.30;;;;;;10463134;28;20225;-83
2024/02/07 16:16:08;;;;;;;0.40;0.40;;;11.70;99.40;;;;;;10457405;28;20201;-80
2024/02/07 16:21:10;;;;;;;0.30;0.30;;;11.50;99.90;;;;;;10457973;28;20233;-82
2024/02/07 16:26:13;;;;;;;0.50;0.50;;;11.40;99.90;;;;;;10457613;28;20194;-84
2024/02/07 16:31:17;;;;;;;0.60;0.60;;;11.20;99.90;;;;;;10458252;28;20225;-81
2024/02/07 16:36:19;;;;;;;0.80;0.80;;;10.90;99.90;;;;;;10458245;28;20208;-83
2024/02/07 16:41:22;;;;;;;0.73;0.73;;;10.70;99.90;;;;;;10456769;28;20252;-83
2024/02/07 16:46:25;;;;;;;1.10;1.10;;;10.50;99.90;;;;;;10458383;28;20254;-82
2024/02/07 16:51:28;;;;;;;0.50;0.50;;;10.40;99.90;;;;;;10455473;28;20228;-83
2024/02/07 16:56:31;;;;;;;1.13;1.13;;;10.30;99.90;;;;;;10458030;28;20193;-81
2024/02/07 17:01:34;;;;;;;1.37;1.37;;;10.20;99.90;;;;;;10459229;28;20295;-82
2024/02/07 17:06:37;;;;;;;1.60;1.60;;;10.10;99.90;;;;;;10473668;22;20229;-79
2024/02/07 17:11:39;;;;;;;1.40;1.40;;;10.10;99.90;;;;;;10438878;28;20193;-81
2024/02/07 17:16:43;;;;;;;1.63;1.63;;;9.90;99.90;;;;;;10438704;28;20276;-82
2024/02/07 17:21:45;;;;;;;1.90;1.90;;;9.90;99.90;;;;;;10414342;28;20222;-80
2024/02/07 17:26:48;;;;;;;2.33;2.33;;;9.90;99.90;;;;;;10431925;28;20714;-79
2024/02/07 17:31:54;;;;;;;1.57;1.57;;;9.80;99.90;;;;;;10414557;28;20190;-81
2024/02/07 17:36:57;;;;;;;1.47;1.47;;;9.80;99.90;;;;;;10433830;28;20598;-80
2024/02/07 17:42:00;;;;;;;2.20;2.20;;;9.80;99.90;;;;;;10413189;28;20220;-81
2024/02/07 17:47:04;;;;;;;2.00;2.00;;;9.80;99.90;;;;;;10415552;28;20214;-81
2024/02/07 17:52:06;;;;;;;2.30;2.30;;;9.70;99.90;;;;;;10394728;28;20202;-81
2024/02/07 17:57:09;;;;;;;1.70;1.70;;;9.80;99.90;;;;;;10434331;28;20260;-82
2024/02/07 18:02:12;;;;;;;2.30;2.30;;;9.80;99.90;;;;;;10413419;28;20222;-82
2024/02/07 18:07:15;;;;;;;2.40;2.40;;;9.80;99.90;;;;;;10434875;28;20764;-81
2024/02/07 18:12:17;;;;;;;1.90;1.90;;;9.80;99.90;;;;;;10417771;28;20614;-81
2024/02/07 18:17:23;;;;;;;2.13;2.13;;;9.80;99.90;;;;;;10441799;28;20222;-81
2024/02/07 18:22:26;;;;;;;2.33;2.33;;;9.80;99.90;;;;;;10417094;28;20231;-80
2024/02/07 18:27:28;;;;;;;1.60;1.60;;;9.70;99.90;;;;;;10439241;28;20237;-80
2024/02/07 18:32:32;;;;;;;2.47;2.47;;;9.70;99.90;;;;;;10413942;28;20194;-79
2024/02/07 18:37:35;;;;;;;2.67;2.67;;;9.60;99.90;;;;;;10438963;28;20259;-81
2024/02/07 18:42:38;;;;;;;3.13;3.13;;;9.60;99.90;;;;;;10398229;28;20209;-82
2024/02/07 18:47:42;;;;;;;3.37;3.37;;;9.60;99.90;;;;;;10439727;28;20638;-80
2024/02/07 18:52:44;;;;;;;2.50;2.50;;;9.60;99.90;;;;;;10417661;28;20193;-79
2024/02/07 18:57:47;;;;;;;2.77;2.77;;;9.60;99.90;;;;;;10444792;28;20224;-82
2024/02/07 19:02:51;;;;;;;2.80;2.80;;;9.60;99.90;;;;;;10425250;28;20220;-80
2024/02/07 19:07:53;;;;;;;2.80;2.80;;;9.60;99.90;;;;;;10445772;28;20229;-80
2024/02/07 19:12:58;;;;;;;2.33;2.33;;;9.60;99.90;;;;;;10398586;28;20244;-79
2024/02/07 19:18:01;;;;;;;2.30;2.30;;;9.60;99.90;;;;;;10390669;28;20224;-79
2024/02/07 19:23:04;;;;;;;1.90;1.90;;;9.50;99.90;;;;;;10413922;28;20220;-80
2024/02/07 19:28:07;;;;;;;1.17;1.17;;;9.60;99.90;;;;;;10404546;28;20213;-80
2024/02/07 19:33:10;;;;;;;1.23;1.23;;;9.60;99.90;;;;;;10457353;28;20201;-80
2024/02/07 19:38:13;;;;;;;0.80;0.80;;;9.70;99.90;;;;;;10430476;28;20214;-81
2024/02/07 19:43:15;;;;;;;0.20;0.20;;;9.70;99.90;;;;;;10415838;28;20214;-80
2024/02/07 19:48:19;;;;;;;0.90;0.90;;;9.90;99.90;;;;;;10438401;28;20624;-80
2024/02/07 19:53:22;;;;;;;0.80;0.80;;;10.00;99.90;;;;;;10449582;28;20216;-80
2024/02/07 19:58:24;;;;;;;1.10;1.10;;;10.10;99.90;;;;;;10460489;28;20218;-79
2024/02/07 20:03:30;;;;;;;0.80;0.80;;;10.20;99.90;;;;;;10433466;28;20213;-78
2024/02/07 20:08:33;;;;;;;0.87;0.87;;;10.30;99.90;;;;;;10459610;28;20260;-79
2024/02/07 20:13:38;;;;;;;0.70;0.70;;;10.40;99.90;;;;;;10426543;28;20198;-80
2024/02/07 20:18:42;;;;;;;0.80;0.80;;;10.40;99.90;;;;;;10412219;28;20218;-78
2024/02/07 20:23:45;;;;;;;0.70;0.70;;;10.50;99.90;;;;;;10395549;28;20233;-78
2024/02/07 20:28:48;;;;;;;0.70;0.70;;;10.50;99.90;;;;;;10425789;28;20758;-79
2024/02/07 20:33:53;;;;;;;0.70;0.70;;;10.50;99.90;;;;;;10408559;28;20197;-80
2024/02/07 20:38:55;;;;;;;0.70;0.70;;;10.60;99.90;;;;;;10427002;28;20225;-80
2024/02/07 20:43:58;;;;;;;0.90;0.90;;;10.50;99.90;;;;;;10423740;28;20291;-79
2024/02/07 20:49:02;;;;;;;0.70;0.70;;;10.50;99.90;;;;;;10423995;28;20268;-78
2024/02/07 20:54:05;;;;;;;0.60;0.60;;;10.50;99.90;;;;;;10410615;28;20194;-79
2024/02/07 20:59:07;;;;;;;0.70;0.70;;;10.50;99.90;;;;;;10422515;28;20702;-79
2024/02/07 21:04:11;;;;;;;0.60;0.60;;;10.60;99.90;;;;;;10391456;28;20756;-80
2024/02/07 21:09:14;;;;;;;0.83;0.83;;;10.60;99.90;;;;;;10394042;28;20206;-78
2024/02/07 21:14:16;;;;;;;0.60;0.60;;;10.60;99.90;;;;;;10427263;28;20210;-79
2024/02/07 21:19:20;;;;;;;0.70;0.70;;;10.50;99.90;;;;;;10419658;28;20620;-79
2024/02/07 21:24:23;;;;;;;0.70;0.70;;;10.50;99.90;;;;;;10406331;28;20218;-79
2024/02/07 21:29:25;;;;;;;0.70;0.70;;;10.50;99.90;;;;;;10400289;28;20201;-79
2024/02/07 21:34:29;;;;;;;0.40;0.40;;;10.60;99.90;;;;;;10425581;28;20209;-79
2024/02/07 21:39:31;;;;;;;0.60;0.60;;;10.70;99.90;;;;;;10419883;28;20194;-78
2024/02/07 21:44:34;;;;;;;0.47;0.47;;;10.60;99.90;;;;;;10427730;28;20734;-79
2024/02/07 21:49:38;;;;;;;0.80;0.80;;;10.60;99.90;;;;;;10419412;28;20197;-77
2024/02/07 21:54:41;;;;;;;1.27;1.27;;;10.50;99.90;;;;;;10423530;28;20281;-78
2024/02/07 21:59:43;;;;;;;1.30;1.30;;;10.30;99.90;;;;;;10402310;28;20209;-78
2024/02/07 22:04:48;;;;;;;1.47;1.47;;;10.20;99.90;;;;;;10395313;28;20256;-80
2024/02/07 22:09:53;;;;;;;1.63;1.63;;;10.00;99.90;;;;;;10416113;28;20220;-77
2024/02/07 22:14:56;;;;;;;1.70;1.70;;;9.90;99.90;;;;;;10397466;28;20582;-79
2024/02/07 22:20:00;;;;;;;1.90;1.90;;;9.90;99.90;;;;;;10415798;28;20194;-78
2024/02/07 22:25:05;;;;;;;1.80;1.80;;;9.90;99.90;;;;;;10418780;28;20225;-78
2024/02/07 22:30:09;;;;;;;1.20;1.20;;;9.80;99.90;;;;;;10422097;28;20221;-79
2024/02/07 22:35:13;;;;;;;1.20;1.20;;;9.80;99.90;;;;;;10419246;28;20218;-78
2024/02/07 22:40:16;;;;;;;0.90;0.90;;;9.80;99.90;;;;;;10409835;28;20198;-78
2024/02/07 22:45:22;;;;;;;1.27;1.27;;;9.80;99.90;;;;;;10399931;28;20218;-79
2024/02/07 22:50:26;;;;;;;1.10;1.10;;;9.80;99.90;;;;;;10416276;28;20205;-79
2024/02/07 22:55:29;;;;;;;0.90;0.90;;;9.90;99.90;;;;;;10398309;28;20218;-78
2024/02/07 23:00:32;;;;;;;1.10;1.10;;;10.00;99.90;;;;;;10400594;28;20201;-78
2024/02/07 23:05:35;;;;;;;1.00;1.00;;;10.00;99.90;;;;;;10399197;28;20279;-79
2024/02/07 23:10:39;;;;;;;0.90;0.90;;;10.10;99.90;;;;;;10407269;28;20194;-79
2024/02/07 23:15:42;;;;;;;0.80;0.80;;;10.20;99.90;;;;;;10416447;28;20284;-78
2024/02/07 23:20:46;;;;;;;0.77;0.77;;;10.20;99.90;;;;;;10411293;28;20974;-78
2024/02/07 23:25:48;;;;;;;0.90;0.90;;;10.30;99.90;;;;;;10394939;28;20248;-80
2024/02/07 23:30:50;;;;;;;0.80;0.80;;;10.40;99.90;;;;;;10434932;28;20209;-79
2024/02/07 23:35:57;;;;;;;0.80;0.80;;;10.50;99.90;;;;;;10436109;28;20216;-78
2024/02/07 23:41:00;;;;;;;0.70;0.70;;;10.50;99.90;;;;;;10403605;28;20240;-79
2024/02/07 23:46:02;;;;;;;0.80;0.80;;;10.60;99.90;;;;;;10419273;28;20222;-78
2024/02/07 23:51:07;;;;;;;0.90;0.90;;;10.70;99.90;;;;;;10417975;28;20193;-79
2024/02/07 23:56:10;;;;;;;0.60;0.60;;;10.70;99.90;;;;;;10420521;28;20221;-78
